createdAt,value
2023-04-22T00:00:20.672Z,-24007.44
2023-04-22T00:02:49.066Z,-24006.44
2023-04-22T00:08:15.472Z,-24006.25
2023-04-22T00:10:43.759Z,-24004.94
2023-04-22T00:13:12.270Z,-24004.31
2023-04-22T00:15:40.576Z,-24003.97
2023-04-22T00:18:14.130Z,-24003.54
2023-04-22T00:20:43.930Z,-24003.06
2023-04-22T00:23:12.676Z,-24002.69
2023-04-22T00:25:40.902Z,-24003.00
2023-04-22T00:28:09.180Z,-24002.97
2023-04-22T00:30:37.658Z,-24002.97
2023-04-22T00:33:05.902Z,-24002.69
2023-04-22T00:35:34.793Z,-24002.22
2023-04-22T00:38:02.949Z,-24001.34
2023-04-22T00:40:31.417Z,-24000.35
2023-04-22T00:43:00.014Z,-23999.88
2023-04-22T00:45:28.142Z,-23999.31
2023-04-22T00:47:56.291Z,-23998.94
2023-04-22T00:50:24.719Z,-23998.75
2023-04-22T00:52:52.938Z,-23998.60
2023-04-22T00:55:21.272Z,-23998.25
2023-04-22T00:57:49.959Z,-23998.28
2023-04-22T01:00:20.152Z,-23998.03
2023-04-22T01:02:48.732Z,-23997.66
2023-04-22T01:05:17.060Z,-23997.31
2023-04-22T01:07:45.617Z,-23997.04
2023-04-22T01:10:13.986Z,-23996.22
2023-04-22T01:12:42.211Z,-23995.41
2023-04-22T01:15:11.521Z,-23995.12
2023-04-22T01:17:39.784Z,-23994.87
2023-04-22T01:20:10.681Z,-23994.65
2023-04-22T01:22:42.569Z,-23994.09
2023-04-22T01:25:11.512Z,-23993.28
2023-04-22T01:27:41.061Z,-23992.28
2023-04-22T01:30:09.686Z,-23991.24
2023-04-22T01:32:40.945Z,-23990.46
2023-04-22T01:35:09.971Z,-23989.62
2023-04-22T01:37:38.272Z,-23988.80
2023-04-22T01:40:08.000Z,-23987.99
2023-04-22T01:42:36.273Z,-23987.34
2023-04-22T01:45:05.788Z,-23986.74
2023-04-22T01:47:34.041Z,-23986.43
2023-04-22T01:50:02.196Z,-23986.27
2023-04-22T01:52:31.139Z,-23986.08
2023-04-22T01:54:59.452Z,-23985.64
2023-04-22T01:57:27.571Z,-23985.11
2023-04-22T01:59:56.032Z,-23984.83
2023-04-22T02:02:24.255Z,-23984.43
2023-04-22T02:04:52.744Z,-23983.80
2023-04-22T02:07:21.090Z,-23983.23
2023-04-22T02:09:50.921Z,-23982.83
2023-04-22T02:12:19.267Z,-23982.02
2023-04-22T02:14:47.397Z,-23981.11
2023-04-22T02:17:17.942Z,-23980.52
2023-04-22T02:19:47.079Z,-23979.52
2023-04-22T02:22:15.265Z,-23979.11
2023-04-22T02:24:43.512Z,-23979.08
2023-04-22T02:27:11.812Z,-23979.20
2023-04-22T02:29:40.634Z,-23979.27
2023-04-22T02:32:09.550Z,-23978.89
2023-04-22T02:34:39.133Z,-23978.51
2023-04-22T02:37:07.216Z,-23978.17
2023-04-22T02:39:35.528Z,-23977.32
2023-04-22T02:42:03.753Z,-23976.76
2023-04-22T02:44:31.889Z,-23975.95
2023-04-22T02:47:00.291Z,-23975.16
2023-04-22T02:49:28.544Z,-23974.29
2023-04-22T02:51:57.391Z,-23973.67
2023-04-22T02:54:25.545Z,-23973.13
2023-04-22T02:56:53.620Z,-23972.51
2023-04-22T02:59:22.025Z,-23971.91
2023-04-22T03:01:50.400Z,-23971.35
2023-04-22T03:04:30.248Z,-23971.00
2023-04-22T03:06:59.833Z,-23970.29
2023-04-22T03:09:28.141Z,-23970.03
2023-04-22T03:11:56.413Z,-23969.35
2023-04-22T03:14:24.788Z,-23968.72
2023-04-22T03:16:55.337Z,-23968.66
2023-04-22T03:19:23.862Z,-23968.88
2023-04-22T03:21:52.076Z,-23968.84
2023-04-22T03:24:21.868Z,-23969.06
2023-04-22T03:26:51.511Z,-23969.00
2023-04-22T03:29:19.995Z,-23968.81
2023-04-22T03:31:48.169Z,-23968.81
2023-04-22T03:34:16.544Z,-23968.94
2023-04-22T03:36:45.844Z,-23969.41
2023-04-22T03:39:14.191Z,-23969.88
2023-04-22T03:41:42.996Z,-23970.69
2023-04-22T03:44:11.537Z,-23971.69
2023-04-22T03:46:39.854Z,-23972.69
2023-04-22T03:49:17.107Z,-23973.35
2023-04-22T03:51:45.327Z,-23974.60
2023-04-22T03:54:16.781Z,-23975.23
2023-04-22T03:56:51.387Z,-23976.20
2023-04-22T03:59:20.480Z,-23976.76
2023-04-22T04:01:50.843Z,-23977.79
2023-04-22T04:04:21.132Z,-23978.89
2023-04-22T04:06:56.691Z,-23979.89
2023-04-22T04:09:24.994Z,-23980.77
2023-04-22T04:11:53.463Z,-23981.83
2023-04-22T04:14:21.902Z,-23982.71
2023-04-22T04:16:52.499Z,-23983.36
2023-04-22T04:19:26.308Z,-23983.73
2023-04-22T04:21:54.561Z,-23984.05
2023-04-22T04:24:23.537Z,-23984.33
2023-04-22T04:26:53.769Z,-23985.89
2023-04-22T04:29:27.220Z,-23988.40
2023-04-22T04:32:08.698Z,-23990.30
2023-04-22T04:34:37.867Z,-23991.62
2023-04-22T04:37:07.304Z,-23992.12
2023-04-22T04:39:43.715Z,-23992.71
2023-04-22T04:42:14.537Z,-23994.24
2023-04-22T04:44:51.152Z,-23997.09
2023-04-22T04:47:20.318Z,-23999.75
2023-04-22T04:49:50.305Z,-24001.41
2023-04-22T04:52:18.460Z,-24004.41
2023-04-22T04:54:46.734Z,-24007.22
2023-04-22T04:57:14.953Z,-24009.54
2023-04-22T04:59:43.226Z,-24011.16
2023-04-22T05:02:11.961Z,-24012.35
2023-04-22T05:04:40.347Z,-24014.63
2023-04-22T05:07:08.658Z,-24017.16
2023-04-22T05:09:38.399Z,-24018.41
2023-04-22T05:12:07.702Z,-24019.53
2023-04-22T05:14:36.372Z,-24020.16
2023-04-22T05:17:04.714Z,-24021.28
2023-04-22T05:19:33.093Z,-24021.41
2023-04-22T05:22:01.410Z,-24020.25
2023-04-22T05:24:30.440Z,-24019.59
2023-04-22T05:27:00.584Z,-24020.25
2023-04-22T05:29:30.355Z,-24020.75
2023-04-22T05:31:58.673Z,-24020.38
2023-04-22T05:34:27.011Z,-24019.97
2023-04-22T05:36:55.314Z,-24020.07
2023-04-22T05:39:23.891Z,-24021.12
2023-04-22T05:41:52.582Z,-24022.63
2023-04-22T05:44:21.092Z,-24024.00
2023-04-22T05:46:49.483Z,-24025.93
2023-04-22T05:49:17.774Z,-24027.40
2023-04-22T05:52:04.504Z,-24029.03
2023-04-22T05:54:40.981Z,-24031.06
2023-04-22T05:57:09.613Z,-24031.53
2023-04-22T05:59:38.649Z,-24032.62
2023-04-22T06:02:07.563Z,-24033.99
2023-04-22T06:04:37.795Z,-24035.21
2023-04-22T06:07:06.478Z,-24037.08
2023-04-22T06:09:34.682Z,-24038.08
2023-04-22T06:12:04.146Z,-24039.11
2023-04-22T06:14:32.483Z,-24041.29
2023-04-22T06:17:00.728Z,-24043.32
2023-04-22T06:19:29.064Z,-24044.73
2023-04-22T06:21:57.723Z,-24046.38
2023-04-22T06:24:26.015Z,-24048.56
2023-04-22T06:26:58.253Z,-24051.31
2023-04-22T06:29:27.510Z,-24053.25
2023-04-22T06:31:55.947Z,-24054.22
2023-04-22T06:34:24.613Z,-24054.47
2023-04-22T06:36:54.015Z,-24055.43
2023-04-22T06:39:24.102Z,-24057.09
2023-04-22T06:41:55.238Z,-24059.93
2023-04-22T06:44:52.804Z,-24064.38
2023-04-22T06:47:33.356Z,-24066.66
2023-04-22T06:50:14.552Z,-24069.28
2023-04-22T06:52:55.054Z,-24071.34
2023-04-22T06:55:24.345Z,-24074.77
2023-04-22T06:57:52.668Z,-24077.42
2023-04-22T07:00:21.007Z,-24079.41
2023-04-22T07:02:49.259Z,-24081.81
2023-04-22T07:05:17.663Z,-24084.09
2023-04-22T07:07:47.127Z,-24084.21
2023-04-22T07:10:19.332Z,-24084.64
2023-04-22T07:13:07.023Z,-24084.93
2023-04-22T07:15:35.337Z,-24086.17
2023-04-22T07:18:03.915Z,-24087.48
2023-04-22T07:20:32.089Z,-24088.60
2023-04-22T07:23:00.348Z,-24088.57
2023-04-22T07:25:28.586Z,-24088.51
2023-04-22T07:27:56.770Z,-24091.31
2023-04-22T07:30:25.001Z,-24095.52
2023-04-22T07:32:53.350Z,-24098.88
2023-04-22T07:35:21.681Z,-24102.09
2023-04-22T07:37:49.858Z,-24104.06
2023-04-22T07:40:18.146Z,-24106.73
2023-04-22T07:42:46.458Z,-24107.29
2023-04-22T07:45:14.834Z,-24107.26
2023-04-22T07:47:43.279Z,-24107.60
2023-04-22T07:50:11.635Z,-24107.48
2023-04-22T07:52:39.811Z,-24107.73
2023-04-22T07:55:08.606Z,-24108.04
2023-04-22T07:57:38.963Z,-24108.97
2023-04-22T08:00:08.224Z,-24108.91
2023-04-22T08:02:44.304Z,-24110.44
2023-04-22T08:05:12.773Z,-24111.71
2023-04-22T08:07:41.144Z,-24111.47
2023-04-22T08:10:10.008Z,-24110.63
2023-04-22T08:12:38.283Z,-24111.28
2023-04-22T08:15:06.938Z,-24112.15
2023-04-22T08:17:35.410Z,-24113.39
2023-04-22T08:20:06.524Z,-24116.72
2023-04-22T08:22:36.859Z,-24119.00
2023-04-22T08:25:06.916Z,-24119.68
2023-04-22T08:27:35.638Z,-24120.64
2023-04-22T08:30:04.576Z,-24121.11
2023-04-22T08:32:33.865Z,-24122.07
2023-04-22T08:35:04.909Z,-24122.79
2023-04-22T08:37:34.468Z,-24123.76
2023-04-22T08:40:04.808Z,-24125.72
2023-04-22T08:42:33.097Z,-24126.74
2023-04-22T08:45:03.194Z,-24127.30
2023-04-22T08:47:33.156Z,-24128.45
2023-04-22T08:50:02.412Z,-24128.08
2023-04-22T08:52:31.382Z,-24128.64
2023-04-22T08:54:59.748Z,-24130.85
2023-04-22T08:57:28.056Z,-24133.74
2023-04-22T08:59:56.466Z,-24136.04
2023-04-22T09:02:25.051Z,-24137.32
2023-04-22T09:04:56.065Z,-24138.25
2023-04-22T09:07:25.833Z,-24139.78
2023-04-22T09:09:57.303Z,-24140.46
2023-04-22T09:12:25.638Z,-24141.39
2023-04-22T09:14:54.788Z,-24142.20
2023-04-22T09:17:33.290Z,-24144.29
2023-04-22T09:20:02.323Z,-24148.36
2023-04-22T09:22:38.553Z,-24151.47
2023-04-22T09:25:15.177Z,-24153.24
2023-04-22T09:27:43.632Z,-24154.14
2023-04-22T09:30:11.932Z,-24154.70
2023-04-22T09:32:40.206Z,-24155.41
2023-04-22T09:35:08.784Z,-24156.87
2023-04-22T09:37:46.505Z,-24158.77
2023-04-22T09:40:18.915Z,-24160.20
2023-04-22T09:42:51.569Z,-24162.56
2023-04-22T09:45:39.513Z,-24164.76
2023-04-22T09:48:15.387Z,-24167.81
2023-04-22T09:50:48.302Z,-24171.10
2023-04-22T09:53:17.744Z,-24173.03
2023-04-22T09:55:50.659Z,-24173.40
2023-04-22T09:58:20.326Z,-24174.30
2023-04-22T10:00:53.476Z,-24176.22
2023-04-22T10:03:22.607Z,-24179.11
2023-04-22T10:05:51.252Z,-24181.56
2023-04-22T10:08:19.481Z,-24184.14
2023-04-22T10:10:47.846Z,-24187.40
2023-04-22T10:13:17.178Z,-24190.26
2023-04-22T10:15:52.395Z,-24193.02
2023-04-22T10:18:23.360Z,-24196.65
2023-04-22T10:20:51.778Z,-24199.35
2023-04-22T10:23:21.393Z,-24201.05
2023-04-22T10:25:53.767Z,-24202.91
2023-04-22T10:28:23.427Z,-24204.93
2023-04-22T10:30:51.741Z,-24206.66
2023-04-22T10:33:24.138Z,-24209.24
2023-04-22T10:36:19.899Z,-24213.64
2023-04-22T10:38:50.887Z,-24218.39
2023-04-22T10:41:23.300Z,-24220.25
2023-04-22T10:44:01.388Z,-24221.98
2023-04-22T10:46:40.152Z,-24224.24
2023-04-22T10:49:18.230Z,-24226.04
2023-04-22T10:51:47.939Z,-24226.97
2023-04-22T10:54:31.483Z,-24225.30
2023-04-22T10:57:02.241Z,-24223.34
2023-04-22T10:59:35.226Z,-24221.70
2023-04-22T11:02:06.763Z,-24220.68
2023-04-22T11:04:35.680Z,-24221.21
2023-04-22T11:07:20.860Z,-24221.18
2023-04-22T11:09:53.422Z,-24219.81
2023-04-22T11:12:39.671Z,-24218.57
2023-04-22T11:15:17.157Z,-24219.44
2023-04-22T11:17:51.362Z,-24220.90
2023-04-22T11:20:19.680Z,-24221.21
2023-04-22T11:22:50.064Z,-24221.43
2023-04-22T11:25:18.350Z,-24221.77
2023-04-22T11:27:46.805Z,-24222.63
2023-04-22T11:30:16.356Z,-24224.49
2023-04-22T11:32:47.788Z,-24225.98
2023-04-22T11:35:24.730Z,-24227.31
2023-04-22T11:38:04.179Z,-24228.98
2023-04-22T11:40:35.823Z,-24230.44
2023-04-22T11:43:07.310Z,-24231.09
2023-04-22T11:45:36.663Z,-24232.14
2023-04-22T11:48:06.297Z,-24232.45
2023-04-22T11:50:36.308Z,-24231.98
2023-04-22T11:53:06.126Z,-24230.68
2023-04-22T11:55:35.989Z,-24229.57
2023-04-22T11:58:10.947Z,-24229.17
2023-04-22T12:00:47.404Z,-24228.70
2023-04-22T12:03:28.816Z,-24228.46
2023-04-22T12:05:59.446Z,-24228.80
2023-04-22T12:08:33.150Z,-24229.85
2023-04-22T12:11:03.858Z,-24231.89
2023-04-22T12:13:42.619Z,-24232.95
2023-04-22T12:16:20.331Z,-24233.50
2023-04-22T12:18:51.800Z,-24233.35
2023-04-22T12:21:24.990Z,-24233.35
2023-04-22T12:24:01.071Z,-24232.98
2023-04-22T12:26:29.544Z,-24232.48
2023-04-22T12:28:59.000Z,-24230.66
2023-04-22T12:31:27.415Z,-24229.67
2023-04-22T12:33:56.347Z,-24230.81
2023-04-22T12:36:25.258Z,-24231.77
2023-04-22T12:38:53.433Z,-24232.14
2023-04-22T12:41:23.145Z,-24232.14
2023-04-22T12:43:52.883Z,-24232.82
2023-04-22T12:46:21.208Z,-24233.57
2023-04-22T12:48:49.446Z,-24233.63
2023-04-22T12:51:17.790Z,-24233.94
2023-04-22T12:53:46.250Z,-24233.17
2023-04-22T12:56:14.893Z,-24232.61
2023-04-22T12:58:43.111Z,-24232.67
2023-04-22T13:01:11.354Z,-24232.20
2023-04-22T13:03:39.652Z,-24231.58
2023-04-22T13:06:07.951Z,-24230.87
2023-04-22T13:08:36.970Z,-24229.76
2023-04-22T13:11:05.122Z,-24228.89
2023-04-22T13:13:33.258Z,-24228.98
2023-04-22T13:16:02.110Z,-24230.29
2023-04-22T13:18:32.181Z,-24231.18
2023-04-22T13:21:00.523Z,-24231.96
2023-04-22T13:23:28.994Z,-24232.36
2023-04-22T13:25:57.126Z,-24233.10
2023-04-22T13:28:25.854Z,-24234.06
2023-04-22T13:30:55.476Z,-24234.65
2023-04-22T13:33:23.769Z,-24235.05
2023-04-22T13:35:51.972Z,-24235.68
2023-04-22T13:38:23.072Z,-24237.47
2023-04-22T13:40:51.296Z,-24239.51
2023-04-22T13:43:19.504Z,-24241.34
2023-04-22T13:45:48.514Z,-24242.55
2023-04-22T13:48:16.884Z,-24243.07
2023-04-22T13:50:45.081Z,-24243.47
2023-04-22T13:53:14.257Z,-24245.12
2023-04-22T13:55:43.445Z,-24246.14
2023-04-22T13:58:11.613Z,-24245.52
2023-04-22T14:00:39.941Z,-24244.96
2023-04-22T14:03:08.198Z,-24245.55
2023-04-22T14:05:37.082Z,-24245.98
2023-04-22T14:08:05.449Z,-24246.66
2023-04-22T14:10:33.820Z,-24247.59
2023-04-22T14:13:02.278Z,-24247.00
2023-04-22T14:15:30.433Z,-24246.57
2023-04-22T14:17:58.689Z,-24246.97
2023-04-22T14:20:27.142Z,-24247.65
2023-04-22T14:22:56.139Z,-24249.48
2023-04-22T14:25:24.418Z,-24250.91
2023-04-22T14:27:52.600Z,-24252.06
2023-04-22T14:30:22.008Z,-24251.22
2023-04-22T14:32:50.589Z,-24249.61
2023-04-22T14:35:19.048Z,-24247.96
2023-04-22T14:37:49.516Z,-24246.85
2023-04-22T14:40:17.838Z,-24245.46
2023-04-22T14:42:46.289Z,-24244.00
2023-04-22T14:45:14.833Z,-24243.88
2023-04-22T14:47:43.687Z,-24243.81
2023-04-22T14:50:12.036Z,-24243.94
2023-04-22T14:52:41.338Z,-24242.82
2023-04-22T14:55:19.902Z,-24241.80
2023-04-22T14:57:56.922Z,-24241.86
2023-04-22T15:00:26.053Z,-24241.74
2023-04-22T15:02:54.951Z,-24242.14
2023-04-22T15:05:23.704Z,-24242.98
2023-04-22T15:07:51.922Z,-24243.35
2023-04-22T15:10:20.370Z,-24242.95
2023-04-22T15:12:48.579Z,-24242.77
2023-04-22T15:15:18.108Z,-24243.04
2023-04-22T15:17:46.269Z,-24243.72
2023-04-22T15:20:14.772Z,-24244.16
2023-04-22T15:22:43.966Z,-24244.06
2023-04-22T15:25:12.109Z,-24243.66
2023-04-22T15:27:40.596Z,-24243.26
2023-04-22T15:30:11.151Z,-24243.26
2023-04-22T15:32:40.196Z,-24243.54
2023-04-22T15:35:08.783Z,-24243.69
2023-04-22T15:37:37.249Z,-24244.28
2023-04-22T15:40:07.048Z,-24244.99
2023-04-22T15:42:35.259Z,-24245.14
2023-04-22T15:45:04.149Z,-24244.84
2023-04-22T15:47:33.514Z,-24244.50
2023-04-22T15:50:09.455Z,-24244.40
2023-04-22T15:52:38.794Z,-24245.05
2023-04-22T15:55:07.868Z,-24245.92
2023-04-22T15:57:37.059Z,-24246.42
2023-04-22T16:00:13.102Z,-24246.32
2023-04-22T16:02:44.889Z,-24245.55
2023-04-22T16:05:14.823Z,-24244.50
2023-04-22T16:07:43.488Z,-24243.79
2023-04-22T16:10:12.129Z,-24242.86
2023-04-22T16:12:42.124Z,-24241.62
2023-04-22T16:15:11.123Z,-24240.66
2023-04-22T16:17:40.471Z,-24239.20
2023-04-22T16:20:09.657Z,-24237.87
2023-04-22T16:22:38.219Z,-24236.42
2023-04-22T16:25:07.052Z,-24234.78
2023-04-22T16:27:35.560Z,-24233.69
2023-04-22T16:30:04.144Z,-24232.32
2023-04-22T16:32:33.086Z,-24231.03
2023-04-22T16:35:01.518Z,-24229.26
2023-04-22T16:37:31.153Z,-24227.77
2023-04-22T16:39:59.388Z,-24226.07
2023-04-22T16:42:27.768Z,-24224.58
2023-04-22T16:44:56.030Z,-24223.10
2023-04-22T16:47:24.484Z,-24222.23
2023-04-22T16:49:52.758Z,-24221.52
2023-04-22T16:52:21.628Z,-24220.50
2023-04-22T16:54:51.628Z,-24219.38
2023-04-22T16:57:19.786Z,-24218.39
2023-04-22T16:59:50.452Z,-24217.45
2023-04-22T17:02:21.266Z,-24216.46
2023-04-22T17:04:50.699Z,-24215.40
2023-04-22T17:07:23.525Z,-24214.04
2023-04-22T17:09:57.196Z,-24212.93
2023-04-22T17:12:30.339Z,-24211.84
2023-04-22T17:15:12.648Z,-24210.97
2023-04-22T17:17:53.841Z,-24209.73
2023-04-22T17:20:22.290Z,-24208.43
2023-04-22T17:22:51.885Z,-24207.16
2023-04-22T17:25:20.170Z,-24205.73
2023-04-22T17:27:48.712Z,-24204.37
2023-04-22T17:30:16.958Z,-24203.13
2023-04-22T17:32:45.502Z,-24202.11
2023-04-22T17:35:13.636Z,-24201.27
2023-04-22T17:37:41.873Z,-24200.49
2023-04-22T17:40:11.305Z,-24199.84
2023-04-22T17:42:45.598Z,-24199.28
2023-04-22T17:45:14.582Z,-24198.51
2023-04-22T17:47:42.701Z,-24197.89
2023-04-22T17:50:11.263Z,-24197.36
2023-04-22T17:52:40.826Z,-24196.46
2023-04-22T17:55:09.602Z,-24195.75
2023-04-22T17:57:59.965Z,-24195.03
2023-04-22T18:00:39.843Z,-24193.73
2023-04-22T18:03:08.238Z,-24191.90
2023-04-22T18:05:43.157Z,-24190.72
2023-04-22T18:08:11.429Z,-24189.51
2023-04-22T18:10:46.174Z,-24188.52
2023-04-22T18:13:14.527Z,-24187.99
2023-04-22T18:15:42.614Z,-24187.28
2023-04-22T18:18:10.723Z,-24186.50
2023-04-22T18:20:38.965Z,-24185.54
2023-04-22T18:23:07.118Z,-24184.33
2023-04-22T18:25:35.739Z,-24183.46
2023-04-22T18:28:04.064Z,-24183.03
2023-04-22T18:30:32.896Z,-24182.56
2023-04-22T18:33:01.216Z,-24182.19
2023-04-22T18:35:29.673Z,-24181.94
2023-04-22T18:37:57.737Z,-24181.75
2023-04-22T18:40:25.989Z,-24181.44
2023-04-22T18:42:54.216Z,-24181.28
2023-04-22T18:45:23.227Z,-24180.97
2023-04-22T18:47:51.558Z,-24180.78
2023-04-22T18:50:19.974Z,-24180.32
2023-04-22T18:52:48.494Z,-24179.45
2023-04-22T18:55:16.653Z,-24178.86
2023-04-22T18:57:44.913Z,-24178.43
2023-04-22T19:00:13.583Z,-24177.81
2023-04-22T19:02:42.578Z,-24177.62
2023-04-22T19:05:11.293Z,-24177.43
2023-04-22T19:07:42.566Z,-24177.34
2023-04-22T19:10:12.627Z,-24177.18
2023-04-22T19:12:41.124Z,-24177.03
2023-04-22T19:15:09.825Z,-24176.93
2023-04-22T19:17:38.778Z,-24176.96
2023-04-22T19:20:08.386Z,-24176.56
2023-04-22T19:22:37.084Z,-24176.01
2023-04-22T19:25:06.583Z,-24175.54
2023-04-22T19:27:35.214Z,-24174.95
2023-04-22T19:30:05.090Z,-24174.39
2023-04-22T19:32:33.805Z,-24174.14
2023-04-22T19:35:04.052Z,-24173.80
2023-04-22T19:37:34.263Z,-24173.58
2023-04-22T19:40:02.392Z,-24173.09
2023-04-22T19:42:30.845Z,-24172.90
2023-04-22T19:44:59.707Z,-24172.56
2023-04-22T19:47:28.060Z,-24172.34
2023-04-22T19:49:56.689Z,-24172.03
2023-04-22T19:52:24.971Z,-24171.59
2023-04-22T19:54:56.271Z,-24170.42
2023-04-22T19:57:25.048Z,-24169.48
2023-04-22T19:59:54.244Z,-24168.52
2023-04-22T20:02:23.934Z,-24167.09
2023-04-22T20:04:52.347Z,-24166.50
2023-04-22T20:07:20.779Z,-24165.82
2023-04-22T20:09:48.859Z,-24165.29
2023-04-22T20:12:17.267Z,-24164.23
2023-04-22T20:14:46.119Z,-24162.93
2023-04-22T20:17:14.491Z,-24161.66
2023-04-22T20:19:45.131Z,-24160.29
2023-04-22T20:22:14.779Z,-24159.23
2023-04-22T20:24:43.064Z,-24157.99
2023-04-22T20:27:11.596Z,-24157.25
2023-04-22T20:29:40.054Z,-24156.50
2023-04-22T20:32:09.674Z,-24156.22
2023-04-22T20:34:38.506Z,-24155.82
2023-04-22T20:37:10.504Z,-24155.26
2023-04-22T20:39:38.747Z,-24155.07
2023-04-22T20:42:07.321Z,-24154.85
2023-04-22T20:44:35.497Z,-24154.63
2023-04-22T20:47:03.681Z,-24154.17
2023-04-22T20:49:32.496Z,-24153.95
2023-04-22T20:52:01.226Z,-24153.77
2023-04-22T20:54:30.438Z,-24153.55
2023-04-22T20:56:59.040Z,-24153.08
2023-04-22T20:59:27.794Z,-24152.64
2023-04-22T21:01:55.945Z,-24152.58
2023-04-22T21:04:24.885Z,-24152.49
2023-04-22T21:06:55.816Z,-24152.55
2023-04-22T21:09:27.201Z,-24152.18
2023-04-22T21:11:55.795Z,-24151.68
2023-04-22T21:14:26.432Z,-24151.37
2023-04-22T21:17:05.214Z,-24151.28
2023-04-22T21:19:34.328Z,-24151.22
2023-04-22T21:22:05.194Z,-24150.75
2023-04-22T21:24:35.065Z,-24150.01
2023-04-22T21:27:03.730Z,-24149.23
2023-04-22T21:29:32.791Z,-24148.48
2023-04-22T21:32:07.979Z,-24148.02
2023-04-22T21:34:38.054Z,-24147.80
2023-04-22T21:37:07.153Z,-24147.24
2023-04-22T21:39:35.500Z,-24146.84
2023-04-22T21:42:07.953Z,-24146.62
2023-04-22T21:44:37.689Z,-24146.53
2023-04-22T21:47:06.816Z,-24146.03
2023-04-22T21:49:35.060Z,-24145.09
2023-04-22T21:52:03.456Z,-24144.04
2023-04-22T21:54:31.656Z,-24143.01
2023-04-22T21:57:01.366Z,-24142.17
2023-04-22T21:59:29.847Z,-24140.58
2023-04-22T22:01:58.136Z,-24139.40
2023-04-22T22:04:26.474Z,-24138.31
2023-04-22T22:06:54.650Z,-24137.13
2023-04-22T22:09:23.016Z,-24136.54
2023-04-22T22:11:51.078Z,-24136.20
2023-04-22T22:14:19.245Z,-24135.73
2023-04-22T22:16:47.423Z,-24135.30
2023-04-22T22:19:15.995Z,-24134.46
2023-04-22T22:21:44.061Z,-24133.96
2023-04-22T22:24:12.343Z,-24133.52
2023-04-22T22:26:42.111Z,-24133.12
2023-04-22T22:29:15.456Z,-24132.87
2023-04-22T22:31:44.462Z,-24132.43
2023-04-22T22:34:12.534Z,-24131.94
2023-04-22T22:36:41.294Z,-24131.59
2023-04-22T22:39:12.013Z,-24131.50
2023-04-22T22:41:42.411Z,-24131.22
2023-04-22T22:44:12.404Z,-24130.85
2023-04-22T22:46:40.783Z,-24130.26
2023-04-22T22:49:11.610Z,-24129.82
2023-04-22T22:51:39.624Z,-24129.51
2023-04-22T22:54:12.172Z,-24129.11
2023-04-22T22:56:41.204Z,-24128.64
2023-04-22T22:59:09.893Z,-24128.02
2023-04-22T23:01:38.317Z,-24127.49
2023-04-22T23:04:07.566Z,-24127.08
2023-04-22T23:09:21.473Z,-24125.96
2023-04-22T23:11:51.906Z,-24125.31
2023-04-22T23:14:20.298Z,-24125.06
2023-04-22T23:16:48.736Z,-24124.47
2023-04-22T23:19:20.099Z,-24123.54
2023-04-22T23:21:49.019Z,-24122.67
2023-04-22T23:24:17.501Z,-24121.89
2023-04-22T23:26:46.140Z,-24121.42
2023-04-22T23:29:14.520Z,-24120.77
2023-04-22T23:31:42.649Z,-24120.46
2023-04-22T23:34:10.832Z,-24120.05
2023-04-22T23:36:39.457Z,-24119.68
2023-04-22T23:39:09.795Z,-24119.31
2023-04-22T23:41:38.026Z,-24118.75
2023-04-22T23:44:06.674Z,-24117.88
2023-04-22T23:46:35.904Z,-24117.19
2023-04-22T23:49:04.288Z,-24116.76
2023-04-22T23:51:34.408Z,-24116.38
2023-04-22T23:54:02.604Z,-24116.07
2023-04-22T23:56:31.422Z,-24115.67
2023-04-22T23:58:59.969Z,-24115.07
